Airey, Mississippi
Current Conditions -  °F | °C
As of 9:53 PM on Thursday 18 Dec 2014 (Local Time) from KGPT Reporting Station
Overcast Overcast  
Wind Chill: 59°   Ceiling: 2600
Heat Index: 59°   Visibility: 10mi
Dew Point: 49°   Wind: 5mph
Humidity: 69%   Direction: 80°E
Pressure: 30.14"   Gusts: NA
Location:  30.603°N, 89.0932°W
Report Text: KGPT 190353Z 08004KT 10SM OVC026 15/09 A3014 RMK AO2 SLP207 T01500094
Loading
Personal Weather Stations






























Interactive Weather Map New forecast layout! Learn more

10-Day Weather Forecast

Advertisements
Track Severe Weather on mobile